Latest Weather Observations for Dartmoor

IDV60801

Issued at 11:02 am EDT Monday 23 January 2017 (issued every 30 minutes, with the page automatically refreshed every 10 minutes)

About weather observations | Map of weather stations | Latest weather observations for VIC | Other Formats
Station Details ID: 090194 Name: DARTMOOR Lat: -37.92 Lon: 141.26 Height: 51.0 m
Data from the previous 72 hours. | See also: Recent months at Dartmoor
Date/Time
EDT
Temp
°C
App
Temp
°C
Dew
Point
°C
Rel
Hum
%
Delta-T
°C
Wind Press
QNH
hPa
Press
MSL
hPa
Rain since
9am
mm
Dir  Spd
km/h
Gust
km/h
Spd
kts
Gust
kts
23/11:00am 28.0 28.0 14.3 43 8.3 NNW 7 11 4 6 1004.6 1004.5 0.0
23/10:30am 27.6 26.3 12.4 39 8.9 NNW 11 17 6 9 1004.6 1004.5 0.0
23/10:00am 27.2 26.4 12.8 41 8.5 N 9 17 5 9 1004.7 1004.6 0.0
23/09:30am 25.4 25.9 13.9 49 6.8 N 4 7 2 4 1005.0 1004.9 0.0
23/09:00am 23.6 24.1 12.9 51 6.2 N 2 6 1 3 1005.1 1005.0 0.0
23/08:30am 21.0 21.7 13.4 62 4.4 S 2 4 1 2 1005.2 1005.1 0.0
23/08:00am 19.4 19.6 14.2 72 3.0 WSW 6 9 3 5 1005.2 1005.1 0.0
23/07:30am 19.3 20.6 14.1 72 3.0 CALM 0 0 0 0 1004.9 1004.8 0.0
23/07:00am 18.4 19.6 13.9 75 2.6 CALM 0 4 0 2 1004.8 1004.7 0.0
23/06:30am 18.5 19.8 14.0 75 2.6 CALM 0 0 0 0 1004.7 1004.6 0.0
23/06:00am 18.1 18.4 13.4 74 2.7 SSW 4 6 2 3 1005.2 1005.1 0.0
23/05:30am 19.0 19.7 13.4 70 3.2 ENE 2 6 1 3 1004.9 1004.8 0.0
23/05:00am 19.0 19.9 13.0 68 3.4 CALM 0 0 0 0 1005.3 1005.2 0.0
23/04:30am 19.1 19.2 12.8 67 3.5 E 4 6 2 3 1005.5 1005.4 0.0
23/04:00am 18.8 18.5 13.4 71 3.1 NE 7 9 4 5 1005.8 1005.7 0.0
23/03:30am 18.9 20.0 13.5 71 3.1 CALM 0 0 0 0 1006.2 1006.1 0.0
23/03:00am 19.4 20.6 13.8 70 3.2 CALM 0 0 0 0 1006.6 1006.5 0.0
23/02:30am 19.1 20.1 13.1 68 3.4 CALM 0 2 0 1 1007.3 1007.2 0.0
23/02:00am 19.2 19.4 12.9 67 3.6 SSE 4 6 2 3 1007.6 1007.5 0.0
23/01:30am 19.4 20.3 12.9 66 3.7 CALM 0 2 0 1 1008.0 1007.8 0.0
23/01:00am 19.7 20.2 12.7 64 4.0 ESE 2 6 1 3 1008.0 1007.8 0.0
23/12:30am 19.8 19.0 11.8 60 4.4 E 7 11 4 6 1008.0 1007.8 0.0
23/12:00am 19.9 18.7 11.7 59 4.6 E 9 13 5 7 1008.7 1008.5 0.0
 
Date/Time
EDT
Temp
°C
App
Temp
°C
Dew
Point
°C
Rel
Hum
%
Delta-T
°C
Wind Press
QNH
hPa
Press
MSL
hPa
Rain since
9am
mm
Dir  Spd
km/h
Gust
km/h
Spd
kts
Gust
kts
22/11:30pm 19.9 18.0 11.9 60 4.5 E 13 17 7 9 1009.4 1009.2 0.0
22/11:00pm 19.9 19.3 12.2 61 4.3 ESE 7 11 4 6 1010.1 1009.9 0.0
22/10:30pm 20.2 19.5 11.9 59 4.6 ESE 7 11 4 6 1010.5 1010.3 0.0
22/10:00pm 20.6 19.7 11.2 55 5.2 ESE 7 9 4 5 1010.3 1010.1 0.0
22/09:30pm 21.7 20.4 11.1 51 5.9 SE 9 13 5 7 1010.5 1010.3 0.0
22/09:00pm 21.9 20.0 11.9 53 5.6 ESE 13 17 7 9 1010.4 1010.2 0.0
22/08:30pm 22.9 20.6 13.1 54 5.7 ESE 17 22 9 12 1010.2 1010.0 0.0
22/08:00pm 24.5 21.1 12.5 47 6.9 ESE 22 30 12 16 1009.7 1009.5 0.0
22/07:30pm 27.1 25.1 13.8 44 7.9 SE 17 24 9 13 1009.8 1009.6 0.0
22/07:00pm 28.0 25.5 13.5 41 8.6 SSE 19 24 10 13 1009.3 1009.1 0.0
22/06:30pm 29.3 26.3 11.8 34 10.2 S 19 26 10 14 1009.3 1009.1 0.0
22/06:00pm 29.9 27.8 12.3 33 10.4 S 15 24 8 13 1009.4 1009.2 0.0
22/05:30pm 30.0 28.3 12.4 34 10.4 SSE 13 22 7 12 1009.9 1009.7 0.0
22/05:00pm 30.1 27.3 12.5 34 10.4 S 19 30 10 16 1010.3 1010.1 0.0
22/04:30pm 30.5 28.4 12.4 33 10.7 S 15 20 8 11 1010.4 1010.2 0.0
22/04:00pm 30.7 29.2 13.0 33 10.6 SSW 13 19 7 10 1010.7 1010.5 0.0
22/03:30pm 29.9 27.3 13.2 36 9.9 SSW 19 26 10 14 1011.2 1011.0 0.0
22/03:00pm 30.9 28.3 10.8 29 11.6 NW 15 28 8 15 1011.6 1011.5 0.0
22/02:30pm 30.7 28.7 11.6 31 11.1 NW 13 22 7 12 1012.0 1011.9 0.0
22/02:00pm 29.6 28.3 11.2 32 10.6 WNW 9 19 5 10 1012.4 1012.3 0.0
22/01:30pm 29.3 27.7 11.4 33 10.3 SW 11 22 6 12 1012.7 1012.6 0.0
22/01:00pm 28.6 27.8 11.6 34 9.8 WSW 7 15 4 8 1013.2 1013.1 0.0
22/12:30pm 28.2 27.5 12.1 37 9.4 SW 7 15 4 8 1013.3 1013.2 0.0
22/12:00pm 27.6 27.1 12.0 38 9.0 WSW 6 9 3 5 1013.6 1013.5 0.0
22/11:30am 26.4 25.8 11.7 40 8.4 NNW 6 11 3 6 1013.7 1013.6 0.0
22/11:00am 25.3 24.5 11.8 43 7.7 N 7 11 4 6 1013.9 1013.8 0.0
22/10:30am 23.2 23.2 12.5 51 6.1 ENE 4 7 2 4 1014.0 1013.9 0.0
22/10:00am 21.2 21.4 13.1 60 4.6 SE 4 6 2 3 1014.3 1014.2 0.0
22/09:30am 19.4 19.6 12.9 66 3.7 ENE 4 6 2 3 1014.5 1014.4 0.0
22/09:00am 17.8 17.6 12.9 73 2.7 ENE 6 7 3 4 1014.6 1014.5 0.0
22/08:30am 16.4 16.6 12.9 80 1.9 E 4 6 2 3 1014.6 1014.5 0.0
22/08:00am 14.2 14.3 12.8 91 0.8 E 4 7 2 4 1014.5 1014.4 0.0
22/07:30am 12.8 12.3 11.9 94 0.5 E 6 7 3 4 1014.2 1014.1 0.0
22/07:00am 11.7 10.6 10.8 94 0.5 E 7 9 4 5 1014.1 1014.0 0.0
22/06:30am 11.7 10.3 10.8 94 0.5 E 9 11 5 6 1014.2 1014.1 0.0
22/06:00am 11.8 11.0 10.9 94 0.5 E 6 9 3 5 1014.4 1014.3 0.0
22/05:30am 11.8 10.8 11.0 95 0.4 E 7 9 4 5 1014.4 1014.3 0.0
22/05:00am 11.6 10.5 10.8 95 0.4 E 7 9 4 5 1014.2 1014.1 0.0
22/04:30am 11.6 10.7 10.8 95 0.4 E 6 7 3 4 1014.4 1014.3 0.0
22/04:00am 11.7 10.9 10.9 95 0.4 ENE 6 7 3 4 1014.8 1014.7 0.0
22/03:30am 10.8 10.1 9.9 94 0.5 ENE 4 6 2 3 1015.0 1014.9 0.0
22/03:00am 10.7 9.6 9.8 94 0.5 E 6 6 3 3 1015.1 1015.0 0.0
22/02:30am 11.1 10.8 10.2 94 0.5 ESE 2 2 1 1 1015.4 1015.3 0.0
22/02:00am 11.2 11.3 10.1 93 0.6 CALM 0 0 0 0 1015.7 1015.6 0.0
22/01:30am 11.8 12.0 10.7 93 0.6 CALM 0 0 0 0 1015.9 1015.8 0.0
22/01:00am 12.2 11.7 10.9 92 0.7 SE 4 4 2 2 1016.2 1016.1 0.0
22/12:30am 12.5 12.5 11.1 91 0.7 SSW 2 4 1 2 1016.7 1016.6 0.0
22/12:00am 13.0 12.7 11.4 90 0.8 S 4 6 2 3 1016.6 1016.5 0.0
 
Date/Time
EDT
Temp
°C
App
Temp
°C
Dew
Point
°C
Rel
Hum
%
Delta-T
°C
Wind Press
QNH
hPa
Press
MSL
hPa
Rain since
9am
mm
Dir  Spd
km/h
Gust
km/h
Spd
kts
Gust
kts
21/11:30pm 13.8 13.2 12.2 90 0.9 SSE 7 9 4 5 1016.7 1016.6 0.0
21/11:00pm 13.9 13.4 11.9 88 1.1 S 6 7 3 4 1017.0 1016.9 0.0
21/10:30pm 14.8 14.1 11.9 83 1.6 SSE 7 9 4 5 1016.9 1016.8 0.0
21/10:00pm 15.3 14.7 12.2 82 1.7 SSE 7 13 4 7 1016.7 1016.6 0.0
21/09:30pm 15.9 14.4 11.9 77 2.2 S 11 15 6 8 1016.5 1016.4 0.0
21/09:00pm 16.9 15.0 11.8 72 2.8 SSW 13 19 7 10 1016.5 1016.4 0.0
21/08:30pm 18.1 15.9 12.1 68 3.3 SSW 15 20 8 11 1016.2 1016.1 0.0
21/08:00pm 19.7 18.1 12.7 64 3.9 SSW 13 19 7 10 1015.9 1015.8 0.0
21/07:30pm 20.2 17.3 12.4 61 4.4 SSW 19 24 10 13 1015.5 1015.4 0.0
21/07:00pm 20.9 18.4 12.3 58 4.8 SSW 17 24 9 13 1015.1 1015.0 0.0
21/06:30pm 21.5 18.6 12.4 56 5.2 SSW 19 24 10 13 1014.9 1014.8 0.0
21/06:00pm 22.2 20.2 12.7 55 5.4 S 15 22 8 12 1014.9 1014.8 0.0
21/05:30pm 22.8 20.5 13.0 54 5.6 SSW 17 28 9 15 1014.9 1014.8 0.0
21/05:00pm 23.1 21.8 12.4 51 6.1 SSW 11 17 6 9 1015.0 1014.9 0.0
21/04:30pm 22.7 20.7 12.6 53 5.8 SSW 15 24 8 13 1015.3 1015.2 0.0
21/04:00pm 22.5 21.6 12.7 54 5.6 SSW 9 17 5 9 1015.4 1015.3 0.0
21/03:30pm 22.3 21.0 12.5 53 5.6 S 11 24 6 13 1015.5 1015.4 0.0
21/03:00pm 22.1 19.9 12.1 53 5.6 S 15 24 8 13 1015.6 1015.5 0.0
21/02:30pm 22.3 20.6 12.5 53 5.6 SSW 13 20 7 11 1015.9 1015.8 0.0
21/02:00pm 22.1 20.9 11.5 51 5.9 S 9 19 5 10 1015.9 1015.8 0.0
21/01:30pm 21.4 20.5 11.4 53 5.6 W 7 19 4 10 1015.9 1015.8 0.0
21/01:00pm 20.9 19.5 11.0 53 5.4 S 9 20 5 11 1016.2 1016.1 0.0
21/12:30pm 20.9 20.3 11.8 56 5.1 SW 6 15 3 8 1016.2 1016.1 0.0
21/12:00pm 19.8 18.7 11.8 60 4.4 WSW 9 17 5 9 1016.5 1016.4 0.0
21/11:30am 18.7 17.9 11.8 64 3.8 WSW 7 13 4 7 1016.5 1016.4 0.0
21/11:00am 18.8 18.0 11.6 63 4.0 SW 7 13 4 7 1016.6 1016.5 0.0
21/10:30am 18.3 17.2 12.1 67 3.4 SSW 9 13 5 7 1016.6 1016.5 0.0
21/10:00am 17.1 16.5 12.4 74 2.6 W 7 13 4 7 1016.3 1016.2 0.0
21/09:30am 14.6 14.8 13.1 91 0.8 NNW 4 6 2 3 1016.4 1016.3 0.0
21/09:00am 13.0 13.3 12.2 95 0.4 E 2 4 1 2 1016.2 1016.1 0.0
21/08:30am 11.1 10.9 10.5 96 0.3 NNE 2 6 1 3 1015.7 1015.6 0.0
21/08:00am 10.1 10.0 9.5 96 0.3 CALM 0 4 0 2 1015.4 1015.3 0.0
21/07:30am 9.0 8.6 8.4 96 0.3 CALM 0 0 0 0 1014.9 1014.8 0.0
21/07:00am 7.8 6.7 7.1 95 0.3 ENE 2 2 1 1 1014.4 1014.3 0.0
21/06:30am 7.8 7.1 7.1 95 0.3 CALM 0 0 0 0 1014.1 1014.0 0.0
21/06:00am 8.1 7.1 7.3 95 0.4 NNE 2 2 1 1 1013.7 1013.6 0.0
21/05:30am 8.3 7.7 7.5 95 0.4 CALM 0 2 0 1 1013.3 1013.2 0.0
21/05:00am 8.5 7.9 7.6 94 0.4 CALM 0 0 0 0 1013.2 1013.1 0.0
21/04:30am 8.9 8.4 8.0 94 0.4 CALM 0 0 0 0 1013.1 1013.0 0.0
21/04:00am 9.1 8.7 8.2 94 0.4 CALM 0 0 0 0 1013.0 1012.9 0.0
21/03:30am 9.3 8.9 8.2 93 0.5 CALM 0 0 0 0 1013.0 1012.9 0.0
21/03:00am 10.1 9.9 9.0 93 0.5 CALM 0 0 0 0 1012.9 1012.8 0.0
21/02:30am 10.3 10.1 9.1 92 0.6 CALM 0 0 0 0 1012.9 1012.8 0.0
21/02:00am 10.8 10.4 9.6 92 0.6 NW 2 2 1 1 1012.8 1012.7 0.0
21/01:30am 11.8 11.2 10.5 92 0.7 WNW 4 4 2 2 1012.8 1012.7 0.0
21/01:00am 11.7 11.5 10.3 91 0.7 WNW 2 2 1 1 1012.8 1012.7 0.0
21/12:30am 11.4 10.7 10.0 91 0.7 W 4 4 2 2 1012.6 1012.5 0.0
21/12:00am 11.3 10.5 9.7 90 0.8 SW 4 4 2 2 1012.5 1012.4 0.0
 
Date/Time
EDT
Temp
°C
App
Temp
°C
Dew
Point
°C
Rel
Hum
%
Delta-T
°C
Wind Press
QNH
hPa
Press
MSL
hPa
Rain since
9am
mm
Dir  Spd
km/h
Gust
km/h
Spd
kts
Gust
kts
20/11:30pm 11.3 10.5 9.6 89 0.9 SSW 4 6 2 3 1012.2 1012.1 0.0
20/11:00pm 11.6 10.4 9.7 88 1.0 SSW 6 7 3 4 1012.1 1012.0 0.0
20/10:30pm 11.9 10.7 9.6 86 1.2 SSW 6 7 3 4 1011.9 1011.8 0.0
20/10:00pm 12.4 11.6 9.6 83 1.4 SSW 4 4 2 2 1011.3 1011.2 0.0
20/09:30pm 13.5 12.1 9.7 78 2.0 S 7 9 4 5 1011.0 1010.8 0.0
20/09:00pm 14.3 12.5 9.3 72 2.6 SSW 9 13 5 7 1010.9 1010.7 0.0
20/08:30pm 15.4 12.7 9.1 66 3.2 S 13 17 7 9 1010.4 1010.2 0.0
20/08:00pm 16.2 12.5 9.4 64 3.5 S 19 26 10 14 1010.3 1010.1 0.0
20/07:30pm 17.3 14.4 9.7 61 4.0 S 15 24 8 13 1009.8 1009.6 0.0
20/07:00pm 17.5 14.2 9.4 59 4.3 SSE 17 28 9 15 1009.3 1009.1 0.0
20/06:30pm 17.7 13.9 9.8 60 4.2 SSE 20 30 11 16 1009.0 1008.8 0.0
20/06:00pm 17.3 12.3 9.5 60 4.1 SSW 26 37 14 20 1008.8 1008.6 0.0
20/05:30pm 17.9 13.6 9.3 57 4.5 S 22 35 12 19 1008.7 1008.5 0.0
20/05:00pm 17.0 12.8 9.9 63 3.8 S 22 32 12 17 1008.3 1008.1 0.0
20/04:30pm 18.4 13.4 9.5 56 4.7 SSW 26 41 14 22 1007.8 1007.7 0.0
20/04:00pm 17.9 13.3 9.8 59 4.3 SSW 24 39 13 21 1007.6 1007.5 0.0
20/03:30pm 17.6 12.9 10.7 64 3.7 SW 26 37 14 20 1007.4 1007.3 0.0
20/03:00pm 18.7 13.9 10.3 58 4.5 SSW 26 35 14 19 1007.0 1006.9 0.0
20/02:30pm 17.8 13.3 10.2 61 4.1 SSW 24 33 13 18 1006.5 1006.4 0.0
20/02:00pm 17.7 13.0 10.8 64 3.7 SSW 26 39 14 21 1006.1 1006.0 0.0
20/01:30pm 16.7 12.0 10.8 68 3.2 SSW 26 39 14 21 1006.1 1006.0 0.0
20/01:00pm 16.8 12.8 10.6 67 3.3 SSW 22 32 12 17 1005.9 1005.8 0.0
20/12:30pm 18.4 13.8 11.0 62 4.0 SSW 26 43 14 23 1005.4 1005.3 0.0
20/12:00pm 16.8 11.1 9.7 63 3.7 SSW 30 43 16 23 1004.8 1004.7 0.0
20/11:30am 16.0 10.6 11.0 72 2.7 SSW 30 46 16 25 1004.5 1004.4 0.0

Other Formats:

Comma delimited format used in spreadsheet applications
http://www.bom.gov.au/fwo/IDV60801/IDV60801.95822.axf

JavaScript Object Notation format (JSON) in row-major order
http://www.bom.gov.au/fwo/IDV60801/IDV60801.95822.json